sensor_id;sensor_type;location;lat;lon;timestamp;pressure;altitude;pressure_sealevel;temperature;humidity
78431;BME280;67727;50.236;22.452;2024-03-08T00:00:34;100488.50;;;-1.88;80.70
78431;BME280;67727;50.236;22.452;2024-03-08T00:03:21;100489.12;;;-1.87;80.63
78431;BME280;67727;50.236;22.452;2024-03-08T00:05:48;100486.41;;;-1.85;80.74
78431;BME280;67727;50.236;22.452;2024-03-08T00:08:15;100482.75;;;-1.81;80.73
78431;BME280;67727;50.236;22.452;2024-03-08T00:10:42;100476.71;;;-1.78;80.74
78431;BME280;67727;50.236;22.452;2024-03-08T00:13:09;100475.92;;;-1.76;80.41
78431;BME280;67727;50.236;22.452;2024-03-08T00:15:36;100475.34;;;-1.78;80.46
78431;BME280;67727;50.236;22.452;2024-03-08T00:18:03;100471.39;;;-1.82;80.68
78431;BME280;67727;50.236;22.452;2024-03-08T00:20:30;100473.54;;;-1.87;80.70
78431;BME280;67727;50.236;22.452;2024-03-08T00:22:56;100471.90;;;-1.92;80.61
78431;BME280;67727;50.236;22.452;2024-03-08T00:25:24;100470.42;;;-1.98;81.03
78431;BME280;67727;50.236;22.452;2024-03-08T00:27:51;100468.79;;;-2.03;81.07
78431;BME280;67727;50.236;22.452;2024-03-08T00:30:22;100468.64;;;-2.07;81.25
78431;BME280;67727;50.236;22.452;2024-03-08T00:32:50;100468.61;;;-2.09;81.18
78431;BME280;67727;50.236;22.452;2024-03-08T00:35:17;100466.20;;;-2.10;81.06
78431;BME280;67727;50.236;22.452;2024-03-08T00:37:44;100463.43;;;-2.09;80.87
78431;BME280;67727;50.236;22.452;2024-03-08T00:40:14;100462.00;;;-2.09;80.92
78431;BME280;67727;50.236;22.452;2024-03-08T00:42:41;100461.73;;;-2.07;80.80
78431;BME280;67727;50.236;22.452;2024-03-08T00:45:10;100455.90;;;-2.05;80.75
78431;BME280;67727;50.236;22.452;2024-03-08T00:47:37;100462.59;;;-2.04;80.59
78431;BME280;67727;50.236;22.452;2024-03-08T00:50:04;100460.61;;;-2.02;80.54
78431;BME280;67727;50.236;22.452;2024-03-08T00:52:31;100461.05;;;-2.00;80.49
78431;BME280;67727;50.236;22.452;2024-03-08T00:54:59;100450.50;;;-2.01;80.55
78431;BME280;67727;50.236;22.452;2024-03-08T00:57:25;100454.71;;;-2.02;80.66
78431;BME280;67727;50.236;22.452;2024-03-08T00:59:52;100453.13;;;-2.05;80.40
78431;BME280;67727;50.236;22.452;2024-03-08T01:02:19;100453.67;;;-2.08;80.36
78431;BME280;67727;50.236;22.452;2024-03-08T01:04:48;100452.41;;;-2.14;80.30
78431;BME280;67727;50.236;22.452;2024-03-08T01:07:15;100454.61;;;-2.20;80.33
78431;BME280;67727;50.236;22.452;2024-03-08T01:09:42;100454.19;;;-2.25;80.40
78431;BME280;67727;50.236;22.452;2024-03-08T01:12:09;100454.78;;;-2.30;80.50
78431;BME280;67727;50.236;22.452;2024-03-08T01:14:37;100453.27;;;-2.35;80.47
78431;BME280;67727;50.236;22.452;2024-03-08T01:17:04;100451.00;;;-2.38;80.60
78431;BME280;67727;50.236;22.452;2024-03-08T01:19:30;100447.44;;;-2.39;80.60
78431;BME280;67727;50.236;22.452;2024-03-08T01:21:59;100448.52;;;-2.40;80.83
78431;BME280;67727;50.236;22.452;2024-03-08T01:24:26;100449.48;;;-2.39;80.73
78431;BME280;67727;50.236;22.452;2024-03-08T01:26:53;100446.50;;;-2.38;80.83
78431;BME280;67727;50.236;22.452;2024-03-08T01:29:20;100447.51;;;-2.37;80.81
78431;BME280;67727;50.236;22.452;2024-03-08T01:31:47;100443.31;;;-2.36;81.01
78431;BME280;67727;50.236;22.452;2024-03-08T01:34:14;100440.91;;;-2.36;80.90
78431;BME280;67727;50.236;22.452;2024-03-08T01:36:41;100440.69;;;-2.39;80.76
78431;BME280;67727;50.236;22.452;2024-03-08T01:39:07;100438.10;;;-2.43;80.63
78431;BME280;67727;50.236;22.452;2024-03-08T01:41:34;100437.58;;;-2.50;81.03
78431;BME280;67727;50.236;22.452;2024-03-08T01:44:02;100434.13;;;-2.58;81.16
78431;BME280;67727;50.236;22.452;2024-03-08T01:46:30;100432.05;;;-2.64;81.46
78431;BME280;67727;50.236;22.452;2024-03-08T01:48:58;100432.55;;;-2.67;81.50
78431;BME280;67727;50.236;22.452;2024-03-08T01:51:28;100431.52;;;-2.71;81.46
78431;BME280;67727;50.236;22.452;2024-03-08T01:53:56;100430.77;;;-2.74;81.39
78431;BME280;67727;50.236;22.452;2024-03-08T01:56:26;100429.08;;;-2.74;81.52
78431;BME280;67727;50.236;22.452;2024-03-08T01:58:54;100428.15;;;-2.77;81.72
78431;BME280;67727;50.236;22.452;2024-03-08T02:01:21;100425.82;;;-2.79;81.83
78431;BME280;67727;50.236;22.452;2024-03-08T02:03:49;100426.08;;;-2.80;81.88
78431;BME280;67727;50.236;22.452;2024-03-08T02:06:16;100424.89;;;-2.81;82.08
78431;BME280;67727;50.236;22.452;2024-03-08T02:08:44;100422.55;;;-2.79;81.95
78431;BME280;67727;50.236;22.452;2024-03-08T02:11:12;100420.94;;;-2.78;81.76
78431;BME280;67727;50.236;22.452;2024-03-08T02:13:39;100422.52;;;-2.78;81.59
78431;BME280;67727;50.236;22.452;2024-03-08T02:16:06;100421.80;;;-2.81;81.34
78431;BME280;67727;50.236;22.452;2024-03-08T02:18:35;100426.02;;;-2.86;81.53
78431;BME280;67727;50.236;22.452;2024-03-08T02:21:03;100424.91;;;-2.92;81.86
78431;BME280;67727;50.236;22.452;2024-03-08T02:23:31;100426.39;;;-2.97;81.90
78431;BME280;67727;50.236;22.452;2024-03-08T02:25:59;100426.59;;;-3.02;82.08
78431;BME280;67727;50.236;22.452;2024-03-08T02:28:25;100423.25;;;-3.05;82.26
78431;BME280;67727;50.236;22.452;2024-03-08T02:30:53;100423.89;;;-3.07;82.32
78431;BME280;67727;50.236;22.452;2024-03-08T02:33:23;100419.73;;;-3.07;82.55
78431;BME280;67727;50.236;22.452;2024-03-08T02:35:50;100415.74;;;-3.07;82.79
78431;BME280;67727;50.236;22.452;2024-03-08T02:38:19;100414.69;;;-3.06;82.84
78431;BME280;67727;50.236;22.452;2024-03-08T02:40:51;100412.02;;;-3.05;82.75
78431;BME280;67727;50.236;22.452;2024-03-08T02:43:19;100413.33;;;-3.03;82.84
78431;BME280;67727;50.236;22.452;2024-03-08T02:45:47;100411.98;;;-3.00;82.80
78431;BME280;67727;50.236;22.452;2024-03-08T02:48:15;100417.58;;;-2.97;82.50
78431;BME280;67727;50.236;22.452;2024-03-08T02:50:42;100415.80;;;-2.96;82.34
78431;BME280;67727;50.236;22.452;2024-03-08T02:53:11;100417.63;;;-2.99;82.32
78431;BME280;67727;50.236;22.452;2024-03-08T02:55:40;100414.96;;;-3.01;82.50
78431;BME280;67727;50.236;22.452;2024-03-08T02:58:08;100421.27;;;-3.03;82.31
78431;BME280;67727;50.236;22.452;2024-03-08T03:00:38;100423.58;;;-3.04;82.10
78431;BME280;67727;50.236;22.452;2024-03-08T03:03:05;100422.52;;;-3.07;82.19
78431;BME280;67727;50.236;22.452;2024-03-08T03:05:33;100422.62;;;-3.09;82.16
78431;BME280;67727;50.236;22.452;2024-03-08T03:08:02;100419.42;;;-3.11;82.05
78431;BME280;67727;50.236;22.452;2024-03-08T03:10:35;100416.28;;;-3.11;82.20
78431;BME280;67727;50.236;22.452;2024-03-08T03:13:02;100419.58;;;-3.11;82.13
78431;BME280;67727;50.236;22.452;2024-03-08T03:15:31;100419.92;;;-3.11;82.21
78431;BME280;67727;50.236;22.452;2024-03-08T03:17:57;100424.83;;;-3.09;82.22
78431;BME280;67727;50.236;22.452;2024-03-08T03:20:24;100420.98;;;-3.04;82.27
78431;BME280;67727;50.236;22.452;2024-03-08T03:22:59;100420.45;;;-3.00;82.06
78431;BME280;67727;50.236;22.452;2024-03-08T03:25:28;100421.84;;;-2.96;82.01
78431;BME280;67727;50.236;22.452;2024-03-08T03:28:00;100423.04;;;-2.96;81.60
78431;BME280;67727;50.236;22.452;2024-03-08T03:30:27;100417.88;;;-2.96;81.56
78431;BME280;67727;50.236;22.452;2024-03-08T03:33:00;100413.94;;;-2.97;81.28
78431;BME280;67727;50.236;22.452;2024-03-08T03:35:30;100416.36;;;-3.01;81.25
78431;BME280;67727;50.236;22.452;2024-03-08T03:37:56;100413.77;;;-3.05;81.23
78431;BME280;67727;50.236;22.452;2024-03-08T03:40:36;100419.59;;;-3.11;81.42
78431;BME280;67727;50.236;22.452;2024-03-08T03:43:03;100419.56;;;-3.18;81.53
78431;BME280;67727;50.236;22.452;2024-03-08T03:45:31;100423.41;;;-3.22;81.48
78431;BME280;67727;50.236;22.452;2024-03-08T03:48:03;100422.22;;;-3.26;81.69
78431;BME280;67727;50.236;22.452;2024-03-08T03:50:30;100415.30;;;-3.30;81.63
78431;BME280;67727;50.236;22.452;2024-03-08T03:52:57;100418.51;;;-3.32;81.76
78431;BME280;67727;50.236;22.452;2024-03-08T03:55:24;100419.57;;;-3.33;81.96
78431;BME280;67727;50.236;22.452;2024-03-08T03:57:51;100412.63;;;-3.32;82.04
78431;BME280;67727;50.236;22.452;2024-03-08T04:00:19;100415.48;;;-3.30;82.20
78431;BME280;67727;50.236;22.452;2024-03-08T04:02:45;100413.61;;;-3.31;82.25
78431;BME280;67727;50.236;22.452;2024-03-08T04:05:13;100409.73;;;-3.33;82.49
78431;BME280;67727;50.236;22.452;2024-03-08T04:07:40;100407.26;;;-3.35;82.49
78431;BME280;67727;50.236;22.452;2024-03-08T04:10:08;100409.04;;;-3.36;82.63
78431;BME280;67727;50.236;22.452;2024-03-08T04:12:35;100405.68;;;-3.39;82.63
78431;BME280;67727;50.236;22.452;2024-03-08T04:15:02;100407.55;;;-3.42;82.69
78431;BME280;67727;50.236;22.452;2024-03-08T04:17:29;100408.34;;;-3.44;83.00
78431;BME280;67727;50.236;22.452;2024-03-08T04:19:56;100410.62;;;-3.45;83.04
78431;BME280;67727;50.236;22.452;2024-03-08T04:22:23;100414.88;;;-3.43;82.95
78431;BME280;67727;50.236;22.452;2024-03-08T04:24:50;100416.31;;;-3.41;82.86
78431;BME280;67727;50.236;22.452;2024-03-08T04:27:17;100412.57;;;-3.38;82.82
78431;BME280;67727;50.236;22.452;2024-03-08T04:29:44;100410.19;;;-3.35;82.85
78431;BME280;67727;50.236;22.452;2024-03-08T04:32:11;100409.70;;;-3.32;82.44
78431;BME280;67727;50.236;22.452;2024-03-08T04:34:40;100410.63;;;-3.30;82.23
78431;BME280;67727;50.236;22.452;2024-03-08T04:37:07;100410.92;;;-3.29;82.22
78431;BME280;67727;50.236;22.452;2024-03-08T04:39:37;100405.21;;;-3.29;81.97
78431;BME280;67727;50.236;22.452;2024-03-08T04:42:05;100402.77;;;-3.28;81.86
78431;BME280;67727;50.236;22.452;2024-03-08T04:44:36;100405.28;;;-3.30;81.78
78431;BME280;67727;50.236;22.452;2024-03-08T04:47:06;100408.01;;;-3.33;81.50
78431;BME280;67727;50.236;22.452;2024-03-08T04:49:34;100410.24;;;-3.37;81.83
78431;BME280;67727;50.236;22.452;2024-03-08T04:52:04;100406.97;;;-3.40;81.82
78431;BME280;67727;50.236;22.452;2024-03-08T04:54:31;100413.16;;;-3.43;81.88
78431;BME280;67727;50.236;22.452;2024-03-08T04:56:58;100415.80;;;-3.48;81.82
78431;BME280;67727;50.236;22.452;2024-03-08T04:59:28;100414.80;;;-3.53;81.86
78431;BME280;67727;50.236;22.452;2024-03-08T05:01:55;100418.08;;;-3.57;82.21
78431;BME280;67727;50.236;22.452;2024-03-08T05:04:22;100424.36;;;-3.59;82.36
78431;BME280;67727;50.236;22.452;2024-03-08T05:06:49;100424.47;;;-3.61;82.38
78431;BME280;67727;50.236;22.452;2024-03-08T05:09:16;100429.98;;;-3.61;82.64
78431;BME280;67727;50.236;22.452;2024-03-08T05:11:44;100433.38;;;-3.59;82.70
78431;BME280;67727;50.236;22.452;2024-03-08T05:14:12;100435.14;;;-3.56;82.89
78431;BME280;67727;50.236;22.452;2024-03-08T05:16:43;100434.52;;;-3.49;83.45
78431;BME280;67727;50.236;22.452;2024-03-08T05:19:15;100431.52;;;-3.44;83.40
78431;BME280;67727;50.236;22.452;2024-03-08T05:21:46;100432.05;;;-3.37;83.47
78431;BME280;67727;50.236;22.452;2024-03-08T05:24:13;100432.58;;;-3.30;83.29
78431;BME280;67727;50.236;22.452;2024-03-08T05:26:45;100430.52;;;-3.23;83.42
78431;BME280;67727;50.236;22.452;2024-03-08T05:29:12;100428.11;;;-3.15;83.25
78431;BME280;67727;50.236;22.452;2024-03-08T05:31:50;100426.78;;;-3.10;83.32
78431;BME280;67727;50.236;22.452;2024-03-08T05:34:18;100425.77;;;-3.03;83.18
78431;BME280;67727;50.236;22.452;2024-03-08T05:36:49;100424.77;;;-2.96;83.24
78431;BME280;67727;50.236;22.452;2024-03-08T05:39:19;100426.58;;;-2.91;83.12
78431;BME280;67727;50.236;22.452;2024-03-08T05:41:46;100423.95;;;-2.86;83.14
78431;BME280;67727;50.236;22.452;2024-03-08T05:44:13;100423.90;;;-2.82;83.39
78431;BME280;67727;50.236;22.452;2024-03-08T05:46:40;100425.33;;;-2.76;83.27
78431;BME280;67727;50.236;22.452;2024-03-08T05:49:07;100427.45;;;-2.69;82.90
78431;BME280;67727;50.236;22.452;2024-03-08T05:51:37;100428.54;;;-2.63;83.03
78431;BME280;67727;50.236;22.452;2024-03-08T05:54:08;100428.62;;;-2.58;83.13
78431;BME280;67727;50.236;22.452;2024-03-08T05:56:39;100427.35;;;-2.53;82.99
78431;BME280;67727;50.236;22.452;2024-03-08T05:59:10;100425.48;;;-2.47;83.03
78431;BME280;67727;50.236;22.452;2024-03-08T06:01:38;100427.11;;;-2.41;82.90
78431;BME280;67727;50.236;22.452;2024-03-08T06:04:07;100428.64;;;-2.37;82.87
78431;BME280;67727;50.236;22.452;2024-03-08T06:06:34;100426.54;;;-2.33;82.82
78431;BME280;67727;50.236;22.452;2024-03-08T06:09:04;100429.30;;;-2.29;82.86
78431;BME280;67727;50.236;22.452;2024-03-08T06:11:38;100430.33;;;-2.26;83.02
78431;BME280;67727;50.236;22.452;2024-03-08T06:14:04;100432.12;;;-2.20;83.26
78431;BME280;67727;50.236;22.452;2024-03-08T06:16:32;100433.71;;;-2.14;83.23
78431;BME280;67727;50.236;22.452;2024-03-08T06:19:02;100436.91;;;-2.06;83.04
78431;BME280;67727;50.236;22.452;2024-03-08T06:21:29;100434.44;;;-1.95;83.35
78431;BME280;67727;50.236;22.452;2024-03-08T06:23:56;100438.08;;;-1.81;83.49
78431;BME280;67727;50.236;22.452;2024-03-08T06:26:24;100438.86;;;-1.66;83.29
78431;BME280;67727;50.236;22.452;2024-03-08T06:28:51;100440.60;;;-1.50;83.10
78431;BME280;67727;50.236;22.452;2024-03-08T06:31:18;100439.63;;;-1.35;82.82
78431;BME280;67727;50.236;22.452;2024-03-08T06:33:46;100439.56;;;-1.21;82.56
78431;BME280;67727;50.236;22.452;2024-03-08T06:36:16;100440.92;;;-1.08;82.38
78431;BME280;67727;50.236;22.452;2024-03-08T06:38:45;100439.42;;;-0.94;82.54
78431;BME280;67727;50.236;22.452;2024-03-08T06:41:12;100439.95;;;-0.78;81.94
78431;BME280;67727;50.236;22.452;2024-03-08T06:43:43;100443.05;;;-0.65;81.12
78431;BME280;67727;50.236;22.452;2024-03-08T06:46:10;100437.16;;;-0.59;80.20
78431;BME280;67727;50.236;22.452;2024-03-08T06:48:39;100433.89;;;-0.51;80.08
78431;BME280;67727;50.236;22.452;2024-03-08T06:51:06;100438.33;;;-0.41;79.97
78431;BME280;67727;50.236;22.452;2024-03-08T06:53:33;100436.78;;;-0.29;80.04
78431;BME280;67727;50.236;22.452;2024-03-08T06:56:05;100433.93;;;-0.16;79.66
78431;BME280;67727;50.236;22.452;2024-03-08T06:58:32;100427.36;;;-0.05;79.48
78431;BME280;67727;50.236;22.452;2024-03-08T07:00:59;100432.10;;;0.03;78.29
78431;BME280;67727;50.236;22.452;2024-03-08T07:03:30;100430.46;;;0.10;77.87
78431;BME280;67727;50.236;22.452;2024-03-08T07:05:59;100429.58;;;0.22;78.23
78431;BME280;67727;50.236;22.452;2024-03-08T07:08:25;100430.30;;;0.33;77.16
78431;BME280;67727;50.236;22.452;2024-03-08T07:10:56;100436.52;;;0.45;77.32
78431;BME280;67727;50.236;22.452;2024-03-08T07:13:24;100436.35;;;0.59;77.19
78431;BME280;67727;50.236;22.452;2024-03-08T07:15:51;100435.59;;;0.77;77.71
78431;BME280;67727;50.236;22.452;2024-03-08T07:18:19;100435.21;;;0.94;76.30
78431;BME280;67727;50.236;22.452;2024-03-08T07:20:45;100436.90;;;1.06;75.74
78431;BME280;67727;50.236;22.452;2024-03-08T07:23:12;100431.54;;;1.19;76.01
78431;BME280;67727;50.236;22.452;2024-03-08T07:25:59;100434.65;;;1.36;75.46
78431;BME280;67727;50.236;22.452;2024-03-08T07:28:27;100435.83;;;1.50;75.14
78431;BME280;67727;50.236;22.452;2024-03-08T07:30:58;100435.63;;;1.60;74.24
78431;BME280;67727;50.236;22.452;2024-03-08T07:33:53;100432.79;;;1.74;75.40
78431;BME280;67727;50.236;22.452;2024-03-08T07:36:20;100433.15;;;1.90;74.97
78431;BME280;67727;50.236;22.452;2024-03-08T07:38:48;100433.17;;;2.00;73.82
78431;BME280;67727;50.236;22.452;2024-03-08T07:41:15;100428.57;;;2.11;73.62
78431;BME280;67727;50.236;22.452;2024-03-08T07:43:43;100432.71;;;2.19;72.70
78431;BME280;67727;50.236;22.452;2024-03-08T07:46:09;100425.61;;;2.26;72.24
78431;BME280;67727;50.236;22.452;2024-03-08T07:48:36;100431.75;;;2.33;71.79
78431;BME280;67727;50.236;22.452;2024-03-08T07:51:03;100429.52;;;2.37;71.67
78431;BME280;67727;50.236;22.452;2024-03-08T07:53:30;100426.23;;;2.50;72.81
78431;BME280;67727;50.236;22.452;2024-03-08T07:55:57;100421.10;;;2.68;73.30
78431;BME280;67727;50.236;22.452;2024-03-08T07:58:24;100424.35;;;2.86;71.55
78431;BME280;67727;50.236;22.452;2024-03-08T08:00:51;100419.50;;;2.90;69.66
78431;BME280;67727;50.236;22.452;2024-03-08T08:03:18;100424.98;;;2.97;69.98
78431;BME280;67727;50.236;22.452;2024-03-08T08:05:47;100422.85;;;3.05;69.67
78431;BME280;67727;50.236;22.452;2024-03-08T08:08:15;100417.92;;;3.18;69.48
78431;BME280;67727;50.236;22.452;2024-03-08T08:10:42;100418.27;;;3.34;69.95
78431;BME280;67727;50.236;22.452;2024-03-08T08:13:09;100416.91;;;3.55;69.92
78431;BME280;67727;50.236;22.452;2024-03-08T08:15:36;100411.92;;;3.75;69.59
78431;BME280;67727;50.236;22.452;2024-03-08T08:18:03;100410.80;;;3.92;69.11
78431;BME280;67727;50.236;22.452;2024-03-08T08:20:32;100407.60;;;4.02;67.41
78431;BME280;67727;50.236;22.452;2024-03-08T08:22:58;100413.67;;;4.00;66.24
78431;BME280;67727;50.236;22.452;2024-03-08T08:25:25;100415.36;;;3.98;66.57
78431;BME280;67727;50.236;22.452;2024-03-08T08:27:52;100411.77;;;4.07;67.75
78431;BME280;67727;50.236;22.452;2024-03-08T08:30:20;100413.70;;;4.14;65.38
78431;BME280;67727;50.236;22.452;2024-03-08T08:32:47;100415.02;;;4.07;64.34
78431;BME280;67727;50.236;22.452;2024-03-08T08:35:15;100414.83;;;3.98;64.27
78431;BME280;67727;50.236;22.452;2024-03-08T08:37:42;100409.52;;;3.93;65.35
78431;BME280;67727;50.236;22.452;2024-03-08T08:40:09;100406.99;;;3.98;65.96
78431;BME280;67727;50.236;22.452;2024-03-08T08:42:37;100406.89;;;4.16;67.73
78431;BME280;67727;50.236;22.452;2024-03-08T08:45:07;100407.73;;;4.38;66.78
78431;BME280;67727;50.236;22.452;2024-03-08T08:47:37;100405.47;;;4.52;65.53
78431;BME280;67727;50.236;22.452;2024-03-08T08:50:04;100404.20;;;4.70;65.98
78431;BME280;67727;50.236;22.452;2024-03-08T08:52:32;100404.73;;;4.90;65.91
78431;BME280;67727;50.236;22.452;2024-03-08T08:54:59;100400.79;;;5.10;66.16
78431;BME280;67727;50.236;22.452;2024-03-08T08:57:26;100398.77;;;5.29;65.02
78431;BME280;67727;50.236;22.452;2024-03-08T08:59:54;100396.13;;;5.46;65.00
78431;BME280;67727;50.236;22.452;2024-03-08T09:02:22;100394.52;;;5.65;64.30
78431;BME280;67727;50.236;22.452;2024-03-08T09:04:49;100394.81;;;5.75;61.02
78431;BME280;67727;50.236;22.452;2024-03-08T09:07:17;100395.52;;;5.74;61.12
78431;BME280;67727;50.236;22.452;2024-03-08T09:09:45;100396.96;;;5.84;62.28
78431;BME280;67727;50.236;22.452;2024-03-08T09:12:12;100393.88;;;5.98;61.54
78431;BME280;67727;50.236;22.452;2024-03-08T09:14:40;100391.73;;;6.09;60.81
78431;BME280;67727;50.236;22.452;2024-03-08T09:17:08;100390.23;;;6.20;60.50
78431;BME280;67727;50.236;22.452;2024-03-08T09:19:35;100388.94;;;6.36;61.17
78431;BME280;67727;50.236;22.452;2024-03-08T09:22:04;100387.01;;;6.54;61.45
78431;BME280;67727;50.236;22.452;2024-03-08T09:24:31;100383.88;;;6.63;58.84
78431;BME280;67727;50.236;22.452;2024-03-08T09:26:58;100384.35;;;6.64;59.36
78431;BME280;67727;50.236;22.452;2024-03-08T09:29:28;100379.68;;;6.67;58.50
78431;BME280;67727;50.236;22.452;2024-03-08T09:31:55;100375.99;;;6.61;58.47
78431;BME280;67727;50.236;22.452;2024-03-08T09:34:22;100375.27;;;6.65;58.74
78431;BME280;67727;50.236;22.452;2024-03-08T09:36:50;100375.15;;;6.65;58.51
78431;BME280;67727;50.236;22.452;2024-03-08T09:39:19;100375.98;;;6.53;58.43
78431;BME280;67727;50.236;22.452;2024-03-08T09:41:47;100373.36;;;6.35;58.13
78431;BME280;67727;50.236;22.452;2024-03-08T09:44:17;100373.75;;;6.16;58.71
78431;BME280;67727;50.236;22.452;2024-03-08T09:46:46;100370.11;;;5.95;57.22
78431;BME280;67727;50.236;22.452;2024-03-08T09:49:17;100371.78;;;5.69;57.40
78431;BME280;67727;50.236;22.452;2024-03-08T09:51:45;100372.09;;;5.46;57.23
78431;BME280;67727;50.236;22.452;2024-03-08T09:54:12;100371.88;;;5.40;58.19
78431;BME280;67727;50.236;22.452;2024-03-08T09:56:39;100371.14;;;5.37;58.75
78431;BME280;67727;50.236;22.452;2024-03-08T09:59:08;100371.48;;;5.28;58.48
78431;BME280;67727;50.236;22.452;2024-03-08T10:01:50;100371.81;;;5.31;58.38
78431;BME280;67727;50.236;22.452;2024-03-08T10:04:18;100367.72;;;5.27;58.22
78431;BME280;67727;50.236;22.452;2024-03-08T10:06:46;100370.02;;;5.37;58.41
78431;BME280;67727;50.236;22.452;2024-03-08T10:09:14;100366.58;;;5.51;57.84
78431;BME280;67727;50.236;22.452;2024-03-08T10:11:42;100369.73;;;5.68;59.43
78431;BME280;67727;50.236;22.452;2024-03-08T10:14:09;100369.77;;;5.91;60.13
78431;BME280;67727;50.236;22.452;2024-03-08T10:16:40;100371.01;;;6.17;60.47
78431;BME280;67727;50.236;22.452;2024-03-08T10:19:07;100364.84;;;6.40;58.98
78431;BME280;67727;50.236;22.452;2024-03-08T10:21:34;100368.37;;;6.56;58.45
78431;BME280;67727;50.236;22.452;2024-03-08T10:24:02;100370.55;;;6.73;59.12
78431;BME280;67727;50.236;22.452;2024-03-08T10:26:30;100363.33;;;6.89;56.89
78431;BME280;67727;50.236;22.452;2024-03-08T10:28:57;100360.16;;;6.81;53.64
78431;BME280;67727;50.236;22.452;2024-03-08T10:31:24;100362.56;;;6.76;54.57
78431;BME280;67727;50.236;22.452;2024-03-08T10:33:51;100361.48;;;6.68;54.15
78431;BME280;67727;50.236;22.452;2024-03-08T10:36:18;100358.09;;;6.65;55.10
78431;BME280;67727;50.236;22.452;2024-03-08T10:38:45;100360.23;;;6.69;54.37
78431;BME280;67727;50.236;22.452;2024-03-08T10:41:16;100355.55;;;6.66;54.37
78431;BME280;67727;50.236;22.452;2024-03-08T10:49:13;100348.50;;;6.96;56.34
78431;BME280;67727;50.236;22.452;2024-03-08T10:51:41;100343.58;;;7.07;56.73
78431;BME280;67727;50.236;22.452;2024-03-08T10:54:10;100340.35;;;7.20;56.44
78431;BME280;67727;50.236;22.452;2024-03-08T10:56:38;100337.56;;;7.35;57.39
78431;BME280;67727;50.236;22.452;2024-03-08T10:59:08;100337.48;;;7.51;57.20
78431;BME280;67727;50.236;22.452;2024-03-08T11:01:35;100332.46;;;7.64;54.96
78431;BME280;67727;50.236;22.452;2024-03-08T11:04:06;100330.01;;;7.69;55.26
78431;BME280;67727;50.236;22.452;2024-03-08T11:09:27;100325.81;;;7.67;51.58
78431;BME280;67727;50.236;22.452;2024-03-08T11:12:26;100326.70;;;7.52;53.81
78431;BME280;67727;50.236;22.452;2024-03-08T11:14:59;100321.73;;;7.54;54.05
78431;BME280;67727;50.236;22.452;2024-03-08T11:19:58;100312.20;;;7.47;52.32
78431;BME280;67727;50.236;22.452;2024-03-08T11:22:29;100314.04;;;7.43;53.38
78431;BME280;67727;50.236;22.452;2024-03-08T11:25:02;100316.38;;;7.38;54.26
78431;BME280;67727;50.236;22.452;2024-03-08T11:27:30;100309.73;;;7.46;54.94
78431;BME280;67727;50.236;22.452;2024-03-08T11:30:03;100306.89;;;7.48;52.33
78431;BME280;67727;50.236;22.452;2024-03-08T11:32:45;100302.94;;;7.47;52.86
78431;BME280;67727;50.236;22.452;2024-03-08T11:35:20;100302.03;;;7.49;54.24
78431;BME280;67727;50.236;22.452;2024-03-08T11:37:47;100299.09;;;7.48;53.57
78431;BME280;67727;50.236;22.452;2024-03-08T11:40:15;100299.60;;;7.54;54.86
78431;BME280;67727;50.236;22.452;2024-03-08T11:42:47;100295.60;;;7.67;55.35
78431;BME280;67727;50.236;22.452;2024-03-08T11:45:18;100293.27;;;7.75;54.76
78431;BME280;67727;50.236;22.452;2024-03-08T11:47:47;100288.05;;;7.78;53.71
78431;BME280;67727;50.236;22.452;2024-03-08T11:50:14;100284.01;;;7.72;52.92
78431;BME280;67727;50.236;22.452;2024-03-08T11:52:43;100285.78;;;7.67;53.72
78431;BME280;67727;50.236;22.452;2024-03-08T11:55:11;100279.43;;;7.59;52.01
78431;BME280;67727;50.236;22.452;2024-03-08T11:57:39;100278.98;;;7.56;53.78
78431;BME280;67727;50.236;22.452;2024-03-08T12:00:06;100275.77;;;7.62;55.57
78431;BME280;67727;50.236;22.452;2024-03-08T12:03:07;100273.70;;;7.71;54.40
78431;BME280;67727;50.236;22.452;2024-03-08T12:05:35;100270.77;;;7.73;52.82
78431;BME280;67727;50.236;22.452;2024-03-08T12:08:03;100269.09;;;7.68;52.49
78431;BME280;67727;50.236;22.452;2024-03-08T12:10:31;100268.95;;;7.64;52.50
78431;BME280;67727;50.236;22.452;2024-03-08T12:12:59;100267.38;;;7.60;53.55
78431;BME280;67727;50.236;22.452;2024-03-08T12:15:28;100264.31;;;7.63;53.81
78431;BME280;67727;50.236;22.452;2024-03-08T12:17:56;100265.02;;;7.67;54.71
78431;BME280;67727;50.236;22.452;2024-03-08T12:20:25;100259.64;;;7.73;53.68
78431;BME280;67727;50.236;22.452;2024-03-08T12:22:53;100255.55;;;7.75;54.21
78431;BME280;67727;50.236;22.452;2024-03-08T12:25:20;100250.01;;;7.80;54.85
78431;BME280;67727;50.236;22.452;2024-03-08T12:27:47;100248.86;;;7.84;54.07
78431;BME280;67727;50.236;22.452;2024-03-08T12:30:22;100250.63;;;7.90;55.22
78431;BME280;67727;50.236;22.452;2024-03-08T12:32:59;100243.14;;;7.95;53.92
78431;BME280;67727;50.236;22.452;2024-03-08T12:35:28;100241.56;;;7.97;53.49
78431;BME280;67727;50.236;22.452;2024-03-08T12:37:56;100236.39;;;7.98;54.41
78431;BME280;67727;50.236;22.452;2024-03-08T12:40:31;100235.66;;;8.02;54.84
78431;BME280;67727;50.236;22.452;2024-03-08T12:42:58;100227.52;;;8.06;54.48
78431;BME280;67727;50.236;22.452;2024-03-08T12:45:25;100224.59;;;8.09;53.81
78431;BME280;67727;50.236;22.452;2024-03-08T12:47:56;100219.02;;;8.10;54.79
78431;BME280;67727;50.236;22.452;2024-03-08T12:50:24;100216.67;;;8.12;54.15
78431;BME280;67727;50.236;22.452;2024-03-08T12:52:53;100212.55;;;8.09;52.53
78431;BME280;67727;50.236;22.452;2024-03-08T12:55:20;100215.20;;;8.06;53.34
78431;BME280;67727;50.236;22.452;2024-03-08T12:57:47;100212.90;;;8.04;53.86
78431;BME280;67727;50.236;22.452;2024-03-08T13:00:15;100212.15;;;8.01;53.98
78431;BME280;67727;50.236;22.452;2024-03-08T13:02:46;100206.29;;;7.96;52.76